Time;durP1;ratioP1;P1;durP2;ratioP2;P2;SDS_P1;SDS_P2;PMS_P1;PMS_P2;Temp;Humidity;BMP_temperature;BMP_pressure;BME280_temperature;BME280_humidity;BME280_pressure;Samples;Min_cycle;Max_cycle;Signal;HPM_P1;HPM_P2
2022/08/21 00:01:54;;;;;;;4.50;4.10;;;;;;;26.53;50.46;94541.06;6113485;28;103116;-58
2022/08/21 00:04:57;;;;;;;4.73;4.10;;;;;;;26.52;50.55;94534.94;6109422;28;103778;-58
2022/08/21 00:08:00;;;;;;;4.33;3.93;;;;;;;26.52;50.21;94521.50;6110696;28;103099;-57
2022/08/21 00:11:04;;;;;;;4.73;4.20;;;;;;;26.52;50.63;94529.56;6110159;28;104053;-57
2022/08/21 00:14:10;;;;;;;4.03;3.57;;;;;;;26.51;50.10;94528.00;6114523;28;104254;-58
2022/08/21 00:17:13;;;;;;;5.60;3.93;;;;;;;26.52;50.33;94518.03;6110212;28;104005;-58
2022/08/21 00:20:17;;;;;;;4.50;4.10;;;;;;;26.53;50.53;94535.69;6105744;28;104741;-58
2022/08/21 00:23:21;;;;;;;5.77;4.10;;;;;;;26.52;50.89;94524.19;6114161;28;103002;-58
2022/08/21 00:26:24;;;;;;;5.10;4.23;;;;;;;26.51;50.30;94513.81;6115343;28;103205;-58
2022/08/21 00:29:28;;;;;;;4.97;3.77;;;;;;;26.51;50.44;94521.84;6112176;28;104056;-57
2022/08/21 00:32:32;;;;;;;5.80;4.03;;;;;;;26.51;50.99;94522.63;6104312;28;103083;-57
2022/08/21 00:35:39;;;;;;;6.03;4.43;;;;;;;26.49;50.85;94518.75;6114793;28;103275;-58
2022/08/21 00:38:42;;;;;;;5.93;4.13;;;;;;;26.49;50.77;94513.38;6113205;28;102836;-57
2022/08/21 00:41:46;;;;;;;6.13;4.20;;;;;;;26.50;50.42;94514.94;6112273;28;104184;-58
2022/08/21 00:44:51;;;;;;;4.63;4.23;;;;;;;26.48;50.15;94525.25;6106822;28;104498;-58
2022/08/21 00:47:54;;;;;;;4.63;4.00;;;;;;;26.49;50.39;94524.09;6112756;28;103278;-58
2022/08/21 00:51:00;;;;;;;5.43;4.47;;;;;;;26.47;50.40;94527.13;6115040;28;104454;-58
2022/08/21 00:54:05;;;;;;;4.87;4.37;;;;;;;26.47;50.08;94527.13;6103300;28;104229;-58
2022/08/21 00:57:18;;;;;;;5.10;4.60;;;;;;;26.49;50.28;94524.09;6114432;28;103083;-58
2022/08/21 01:00:27;;;;;;;4.97;4.47;;;;;;;26.47;50.82;94521.00;6098433;28;103244;-57
2022/08/21 01:03:31;;;;;;;4.77;4.37;;;;;;;26.47;50.14;94515.63;6113888;28;104486;-58
2022/08/21 01:06:35;;;;;;;4.40;4.00;;;;;;;26.46;50.18;94508.72;6102533;28;103126;-58
2022/08/21 01:09:38;;;;;;;5.60;3.67;;;;;;;26.46;50.71;94503.34;6114046;28;102755;-57
2022/08/21 01:12:42;;;;;;;4.67;4.27;;;;;;;26.44;50.76;94500.22;6113571;28;104240;-57
2022/08/21 01:15:50;;;;;;;5.30;4.30;;;;;;;26.44;49.99;94502.91;6114282;28;103636;-57
2022/08/21 01:18:53;;;;;;;4.57;4.17;;;;;;;26.44;50.11;94506.38;6105433;28;103291;-57
2022/08/21 01:21:59;;;;;;;4.27;3.87;;;;;;;26.44;50.09;94505.59;6112825;28;103217;-57
2022/08/21 01:25:04;;;;;;;7.37;5.00;;;;;;;26.43;50.56;94494.09;6113751;28;104314;-59
2022/08/21 01:28:12;;;;;;;5.37;4.87;;;;;;;26.43;50.46;94482.56;6102469;28;103316;-57
2022/08/21 01:31:18;;;;;;;4.77;4.30;;;;;;;26.42;50.15;94491.75;6112263;28;103030;-58
2022/08/21 01:34:27;;;;;;;4.73;4.30;;;;;;;26.42;50.21;94500.56;6112800;28;103697;-58
2022/08/21 01:37:32;;;;;;;5.40;4.30;;;;;;;26.42;50.05;94494.44;6113109;28;103387;-58
2022/08/21 01:40:36;;;;;;;4.67;4.27;;;;;;;26.42;50.49;94497.13;6104673;28;104141;-57
2022/08/21 01:43:39;;;;;;;5.33;4.33;;;;;;;26.43;50.46;94509.41;6114459;28;103177;-56
2022/08/21 01:46:42;;;;;;;5.73;5.13;;;;;;;26.42;50.13;94499.81;6112860;28;103306;-56
2022/08/21 01:49:45;;;;;;;6.93;4.17;;;;;;;26.41;50.63;94499.03;6113940;28;103208;-56
2022/08/21 01:52:51;;;;;;;5.10;4.33;;;;;;;26.41;50.73;94503.59;6103006;28;103095;-56
2022/08/21 01:55:54;;;;;;;4.70;4.30;;;;;;;26.41;50.58;94506.28;6112537;28;103065;-56
2022/08/21 01:58:58;;;;;;;6.23;4.40;;;;;;;26.41;50.33;94508.97;6112176;28;103165;-56
2022/08/21 02:02:01;;;;;;;6.40;4.87;;;;;;;26.39;50.39;94505.88;6100201;28;104289;-57
2022/08/21 02:05:07;;;;;;;4.50;4.10;;;;;;;26.41;50.48;94506.28;6110095;28;104101;-55
2022/08/21 02:08:11;;;;;;;5.00;4.10;;;;;;;26.39;50.23;94503.97;6111380;28;103288;-55
2022/08/21 02:11:14;;;;;;;6.60;4.33;;;;;;;26.39;49.97;94500.50;6110983;28;103102;-55
2022/08/21 02:14:17;;;;;;;5.33;4.80;;;;;;;26.37;50.18;94516.91;6100469;28;103928;-55
2022/08/21 02:17:42;;;;;;;4.40;4.00;;;;;;;26.39;50.53;94527.31;6097883;28;103046;-55
2022/08/21 02:20:48;;;;;;;6.00;3.90;;;;;;;26.38;49.98;94518.50;6108403;28;104204;-55
2022/08/21 02:24:00;;;;;;;4.70;4.30;;;;;;;26.39;50.23;94512.00;6108346;28;103043;-56
2022/08/21 02:27:03;;;;;;;4.63;4.10;;;;;;;26.38;50.50;94523.06;6106479;28;103299;-56
2022/08/21 02:30:08;;;;;;;6.30;4.10;;;;;;;26.38;50.52;94525.75;6109798;28;103019;-56
2022/08/21 02:33:12;;;;;;;4.80;4.20;;;;;;;26.38;49.91;94529.22;6110163;28;103203;-55
2022/08/21 02:36:15;;;;;;;4.30;3.70;;;;;;;26.39;50.04;94524.66;6101806;28;103599;-55
2022/08/21 02:39:20;;;;;;;5.03;3.97;;;;;;;26.37;50.23;94519.59;6110714;28;103315;-56
2022/08/21 02:42:30;;;;;;;4.83;4.30;;;;;;;26.38;50.15;94523.06;6111064;28;103078;-58
2022/08/21 02:45:33;;;;;;;5.27;3.67;;;;;;;26.37;50.13;94518.81;6108854;28;103680;-55
2022/08/21 02:48:37;;;;;;;5.23;4.10;;;;;;;26.36;50.48;94526.09;6091005;28;104279;-56
2022/08/21 02:51:41;;;;;;;7.70;4.17;;;;;;;26.36;50.31;94523.41;6110308;28;103029;-56
2022/08/21 02:54:45;;;;;;;4.53;3.97;;;;;;;26.34;50.10;94525.66;6111739;28;104642;-55
2022/08/21 02:57:49;;;;;;;4.60;4.20;;;;;;;26.34;50.44;94527.56;6109067;28;104381;-56
2022/08/21 03:00:52;;;;;;;4.37;3.30;;;;;;;26.34;49.92;94524.88;6101274;28;103032;-56
2022/08/21 03:03:55;;;;;;;3.87;3.30;;;;;;;26.33;50.15;94532.16;6107724;28;103176;-56
2022/08/21 03:06:58;;;;;;;4.23;3.33;;;;;;;26.33;50.26;94523.31;6111158;28;104501;-55
2022/08/21 03:10:04;;;;;;;4.20;3.37;;;;;;;26.31;50.10;94523.66;6097091;28;103888;-56
2022/08/21 03:13:07;;;;;;;4.10;3.40;;;;;;;26.32;49.92;94527.13;6110216;28;103109;-55
2022/08/21 03:16:10;;;;;;;5.07;3.03;;;;;;;26.29;50.04;94523.25;6114687;28;103620;-56
2022/08/21 03:19:14;;;;;;;5.17;3.70;;;;;;;26.30;49.80;94519.44;6115503;28;103733;-56
2022/08/21 03:22:17;;;;;;;4.03;3.70;;;;;;;26.30;49.98;94513.28;6104876;28;103366;-56
2022/08/21 03:25:23;;;;;;;8.10;5.03;;;;;;;26.32;49.68;94519.09;6115243;28;103070;-56
2022/08/21 03:28:42;;;;;;;7.67;6.97;;;;;;;26.31;49.33;94521.00;6102701;28;104207;-56
2022/08/21 03:31:45;;;;;;;6.07;4.80;;;;;;;26.32;49.59;94521.78;6105866;28;104352;-56
2022/08/21 03:34:48;;;;;;;5.00;4.33;;;;;;;26.31;49.83;94526.34;6103066;28;105873;-56
2022/08/21 03:37:52;;;;;;;5.07;4.40;;;;;;;26.31;49.40;94534.41;6108509;28;103996;-56
2022/08/21 03:40:56;;;;;;;4.90;4.50;;;;;;;26.32;49.70;94533.28;6114601;28;103678;-56
2022/08/21 03:44:00;;;;;;;5.33;4.83;;;;;;;26.31;49.79;94536.31;6110258;28;104714;-56
2022/08/21 03:47:03;;;;;;;6.03;5.00;;;;;;;26.30;49.79;94540.13;6109591;28;103531;-56
2022/08/21 03:50:07;;;;;;;6.73;4.80;;;;;;;26.30;49.74;94530.16;6111856;28;103250;-57
2022/08/21 03:53:12;;;;;;;5.40;4.90;;;;;;;26.30;49.70;94521.34;6114432;28;103806;-56
2022/08/21 03:56:20;;;;;;;7.97;5.43;;;;;;;26.31;49.65;94522.91;6105881;28;104154;-57
2022/08/21 03:59:24;;;;;;;6.27;5.70;;;;;;;26.32;49.78;94527.13;6114138;28;104109;-57
2022/08/21 04:02:28;;;;;;;5.30;4.90;;;;;;;26.32;49.79;94535.19;6108524;28;103311;-57
2022/08/21 04:05:32;;;;;;;4.97;4.10;;;;;;;26.30;49.89;94538.22;6106234;28;103323;-57
2022/08/21 04:08:36;;;;;;;6.10;5.50;;;;;;;26.31;49.47;94545.13;6104130;28;103134;-57
2022/08/21 04:11:40;;;;;;;6.07;4.93;;;;;;;26.31;49.95;94539.00;6103142;28;103581;-56
2022/08/21 04:14:43;;;;;;;6.63;4.90;;;;;;;26.31;49.30;94537.09;6113970;28;103078;-56
2022/08/21 04:17:46;;;;;;;5.80;5.20;;;;;;;26.31;49.55;94534.41;6111160;28;104011;-56
2022/08/21 04:20:54;;;;;;;8.70;5.90;;;;;;;26.30;49.37;94532.84;6110182;28;104264;-56
2022/08/21 04:23:58;;;;;;;5.43;4.93;;;;;;;26.31;49.54;94536.31;6112013;28;104039;-56
2022/08/21 04:27:03;;;;;;;5.20;4.70;;;;;;;26.30;49.49;94532.06;6117752;28;103059;-57
2022/08/21 04:30:08;;;;;;;6.13;5.57;;;;;;;26.28;49.63;94530.50;6104316;28;102854;-56
2022/08/21 04:33:11;;;;;;;8.23;6.93;;;;;;;26.26;49.73;94537.34;6111832;28;103608;-56
2022/08/21 04:36:14;;;;;;;7.90;6.27;;;;;;;26.25;49.36;94531.22;6112180;28;103382;-56
2022/08/21 04:39:22;;;;;;;7.23;6.43;;;;;;;26.24;49.33;94529.66;6113086;28;103483;-56
2022/08/21 04:42:33;;;;;;;7.40;6.43;;;;;;;26.23;49.79;94520.03;6102522;28;104127;-56
2022/08/21 04:45:39;;;;;;;6.73;6.23;;;;;;;26.23;49.60;94525.41;6113557;28;103511;-56
2022/08/21 04:48:42;;;;;;;11.30;7.07;;;;;;;26.22;49.16;94528.44;6112473;28;104185;-56
2022/08/21 04:52:01;;;;;;;9.00;6.90;;;;;;;26.20;49.09;94531.44;6112766;28;103908;-56
2022/08/21 04:55:05;;;;;;;8.27;6.80;;;;;;;26.23;49.43;94527.31;6099156;28;103349;-56
2022/08/21 04:58:11;;;;;;;6.97;6.30;;;;;;;26.22;49.35;94525.75;6098937;28;104220;-56
2022/08/21 05:01:20;;;;;;;17.33;15.70;;;;;;;25.99;50.16;94523.59;6109465;28;103155;-57
2022/08/21 05:04:28;;;;;;;19.10;17.43;;;;;;;25.75;50.92;94523.72;6096830;28;103077;-57
2022/08/21 05:07:32;;;;;;;8.07;6.90;;;;;;;25.56;51.19;94526.25;6112791;28;103236;-57
2022/08/21 05:10:45;;;;;;;14.43;7.80;;;;;;;25.49;51.34;94526.81;6108530;28;103052;-57
2022/08/21 05:13:50;;;;;;;7.30;6.60;;;;;;;25.39;51.47;94527.31;6111842;28;103103;-56
2022/08/21 05:16:59;;;;;;;9.30;6.37;;;;;;;25.13;52.21;94526.88;6105002;28;104274;-56
2022/08/21 05:20:03;;;;;;;7.43;6.30;;;;;;;25.11;52.33;94526.44;6111672;28;103673;-57
2022/08/21 05:23:08;;;;;;;7.87;6.97;;;;;;;25.21;52.27;94523.31;6114075;28;103290;-57
2022/08/21 05:26:12;;;;;;;12.77;9.87;;;;;;;25.34;51.94;94512.22;6102405;28;103250;-57
2022/08/21 05:29:22;;;;;;;18.37;16.73;;;;;;;25.36;52.07;94527.97;6107837;28;103268;-57
2022/08/21 05:32:27;;;;;;;16.53;15.13;;;;;;;25.35;52.89;94523.72;6111498;28;104359;-57
2022/08/21 05:35:31;;;;;;;20.47;18.57;;;;;;;25.23;53.12;94524.53;6113885;28;103181;-57
2022/08/21 05:38:35;;;;;;;17.90;16.30;;;;;;;25.30;53.19;94524.72;6100373;28;104390;-58
2022/08/21 05:41:38;;;;;;;9.37;8.60;;;;;;;25.56;51.96;94519.00;6110592;28;103394;-58
2022/08/21 05:44:42;;;;;;;18.60;16.80;;;;;;;25.74;52.21;94516.03;6111773;28;103294;-58
2022/08/21 05:47:47;;;;;;;16.10;14.40;;;;;;;25.46;54.13;94511.44;6112526;28;103137;-58
2022/08/21 05:50:52;;;;;;;12.67;11.47;;;;;;;25.74;52.63;94511.44;6102931;28;103319;-58
2022/08/21 05:53:55;;;;;;;11.20;9.20;;;;;;;25.92;52.73;94515.38;6103700;28;103078;-58
2022/08/21 05:56:58;;;;;;;14.70;13.20;;;;;;;26.01;52.65;94509.88;6106327;28;103466;-59
2022/08/21 06:00:05;;;;;;;14.87;11.83;;;;;;;25.89;53.24;94508.03;6108336;28;103403;-59
2022/08/21 06:03:12;;;;;;;12.33;10.70;;;;;;;25.95;52.66;94511.22;6100905;28;103784;-58
2022/08/21 06:06:15;;;;;;;12.10;9.60;;;;;;;25.79;53.52;94519.22;6111237;28;103152;-57
2022/08/21 06:09:18;;;;;;;21.03;18.83;;;;;;;25.79;54.54;94513.88;6109677;28;103713;-57
2022/08/21 06:12:21;;;;;;;22.20;19.80;;;;;;;25.82;52.91;94507.03;6107305;28;103633;-56
2022/08/21 06:15:26;;;;;;;19.77;17.97;;;;;;;25.97;54.01;94506.31;6107484;28;103583;-56
2022/08/21 06:18:29;;;;;;;16.40;14.97;;;;;;;26.20;54.27;94501.94;6109122;28;102923;-56
2022/08/21 06:21:32;;;;;;;15.03;13.53;;;;;;;26.31;53.32;94506.78;6111022;28;103321;-55
2022/08/21 06:24:36;;;;;;;15.20;13.47;;;;;;;26.41;53.25;94503.59;6100856;28;103328;-55
2022/08/21 06:27:39;;;;;;;12.63;11.07;;;;;;;26.44;53.39;94511.75;6111900;28;103280;-56
2022/08/21 06:30:43;;;;;;;11.77;8.13;;;;;;;26.37;52.39;94516.13;6111910;28;102750;-55
2022/08/21 06:33:48;;;;;;;13.30;12.10;;;;;;;26.34;52.52;94506.09;6110008;28;103163;-58
2022/08/21 06:36:51;;;;;;;12.17;10.97;;;;;;;26.21;52.38;94508.06;6099453;28;102774;-55
2022/08/21 06:39:55;;;;;;;10.47;9.17;;;;;;;26.47;52.10;94511.03;6108062;28;102888;-55
2022/08/21 06:43:07;;;;;;;8.90;8.00;;;;;;;26.53;51.44;94503.50;6107871;28;103460;-56
2022/08/21 06:46:12;;;;;;;7.87;7.13;;;;;;;26.58;51.31;94517.44;6105204;28;103267;-55
2022/08/21 06:49:15;;;;;;;10.07;7.00;;;;;;;26.69;51.91;94516.94;6107551;28;103264;-56
2022/08/21 06:52:23;;;;;;;7.97;7.17;;;;;;;26.78;51.51;94518.31;6115845;28;103127;-54
2022/08/21 06:55:26;;;;;;;9.57;7.13;;;;;;;26.85;50.87;94520.38;6115321;28;104025;-53
2022/08/21 06:58:31;;;;;;;10.77;6.73;;;;;;;26.92;52.01;94519.78;6105382;28;103266;-54
2022/08/21 07:01:36;;;;;;;9.37;7.27;;;;;;;26.92;50.99;94520.56;6111802;28;104489;-55
2022/08/21 07:04:39;;;;;;;9.00;6.40;;;;;;;26.96;50.66;94517.94;6110161;28;103273;-54
2022/08/21 07:07:42;;;;;;;9.27;7.47;;;;;;;26.92;50.08;94511.72;6116074;28;104361;-53
2022/08/21 07:10:46;;;;;;;8.00;7.13;;;;;;;26.99;49.75;94518.03;6103505;28;104719;-56
2022/08/21 07:13:51;;;;;;;14.00;7.77;;;;;;;27.06;50.30;94512.81;6113798;28;103257;-56
2022/08/21 07:16:56;;;;;;;10.90;8.10;;;;;;;27.12;50.91;94513.31;6114151;28;103112;-56
2022/08/21 07:19:59;;;;;;;13.33;7.90;;;;;;;27.15;50.26;94515.31;6110287;28;103036;-56
2022/08/21 07:23:05;;;;;;;8.53;6.50;;;;;;;27.03;50.60;94515.41;6109217;28;103015;-55
2022/08/21 07:26:09;;;;;;;10.23;7.03;;;;;;;26.78;49.75;94504.13;6114187;28;103896;-55
2022/08/21 07:29:12;;;;;;;13.97;7.20;;;;;;;26.83;49.75;94504.63;6114700;28;103227;-54
2022/08/21 07:32:16;;;;;;;13.80;6.67;;;;;;;26.74;50.24;94496.00;6101705;28;103302;-55
2022/08/21 07:35:24;;;;;;;6.77;5.93;;;;;;;26.70;50.00;94502.38;6114872;28;104073;-54
2022/08/21 07:38:27;;;;;;;7.90;4.73;;;;;;;26.71;49.69;94499.34;6114883;28;103119;-57
2022/08/21 07:41:31;;;;;;;5.57;4.97;;;;;;;26.76;50.24;94491.06;6111634;28;103410;-57
2022/08/21 07:44:35;;;;;;;7.13;4.97;;;;;;;26.86;49.37;94490.50;6104869;28;103451;-56
2022/08/21 07:47:39;;;;;;;6.37;5.50;;;;;;;26.93;48.34;94483.75;6111342;28;103239;-56
2022/08/21 07:50:45;;;;;;;9.80;5.60;;;;;;;26.97;49.33;94484.59;6113575;28;104072;-56
2022/08/21 07:53:49;;;;;;;41.23;10.70;;;;;;;27.08;49.24;94489.06;6111348;28;102794;-56
2022/08/21 07:56:52;;;;;;;22.90;7.50;;;;;;;27.20;48.81;94485.47;6097040;28;104596;-57
2022/08/21 07:59:55;;;;;;;18.53;7.10;;;;;;;27.31;49.43;94486.50;6112024;28;103288;-57
2022/08/21 08:03:00;;;;;;;30.87;6.90;;;;;;;27.17;48.99;94480.81;6113041;28;104510;-56
2022/08/21 08:06:04;;;;;;;9.80;6.50;;;;;;;27.06;49.38;94487.88;6106232;28;104904;-58
2022/08/21 08:09:08;;;;;;;8.73;6.70;;;;;;;27.05;50.52;94488.97;6114137;28;103389;-56
2022/08/21 08:12:11;;;;;;;7.00;6.27;;;;;;;26.91;49.73;94488.69;6112892;28;103799;-59
2022/08/21 08:15:17;;;;;;;6.90;5.70;;;;;;;26.86;49.84;94490.50;6114179;28;103236;-56
2022/08/21 08:18:21;;;;;;;8.47;6.17;;;;;;;26.80;50.05;94485.75;6102766;28;103344;-56
2022/08/21 08:21:25;;;;;;;12.67;6.67;;;;;;;27.01;51.32;94491.59;6113076;28;104492;-55
2022/08/21 08:24:28;;;;;;;11.67;6.47;;;;;;;27.07;51.36;94494.81;6114062;28;104172;-55
2022/08/21 08:27:31;;;;;;;12.27;6.37;;;;;;;27.03;50.29;94488.56;6110756;28;105158;-55
2022/08/21 08:30:34;;;;;;;8.10;6.43;;;;;;;26.93;50.03;94489.91;6105953;28;104068;-55
2022/08/21 08:33:39;;;;;;;12.83;7.37;;;;;;;26.76;50.16;94488.38;6114024;28;103138;-54
2022/08/21 08:36:42;;;;;;;10.60;7.07;;;;;;;26.65;50.26;94495.38;6124788;28;104008;-56
2022/08/21 08:39:45;;;;;;;6.50;6.00;;;;;;;26.36;51.01;94496.56;6111587;28;104099;-57
2022/08/21 08:42:50;;;;;;;9.50;5.77;;;;;;;26.51;50.54;94500.38;6108263;28;103323;-56
2022/08/21 08:45:56;;;;;;;9.57;6.47;;;;;;;26.70;50.42;94487.06;6114432;28;104091;-55
2022/08/21 08:49:06;;;;;;;12.20;6.47;;;;;;;26.67;51.20;94484.31;6113532;28;103057;-55
2022/08/21 08:52:19;;;;;;;7.23;6.63;;;;;;;26.40;51.74;94485.97;6090877;28;103548;-55
2022/08/21 08:55:27;;;;;;;19.77;7.43;;;;;;;26.17;51.41;94488.44;6096053;28;104293;-55
2022/08/21 08:58:33;;;;;;;9.73;5.80;;;;;;;25.97;51.39;94479.47;6105390;28;103197;-54
2022/08/21 09:01:37;;;;;;;9.33;6.83;;;;;;;25.71;51.96;94479.97;6110696;28;103348;-56
2022/08/21 09:04:43;;;;;;;7.80;5.83;;;;;;;25.65;51.44;94481.31;6103700;28;104328;-55
2022/08/21 09:07:54;;;;;;;11.80;6.80;;;;;;;25.97;51.14;94474.13;6113202;28;103680;-54
2022/08/21 09:11:04;;;;;;;9.27;6.17;;;;;;;25.92;51.77;94472.47;6111968;28;103100;-55
2022/08/21 09:14:16;;;;;;;7.63;6.90;;;;;;;25.88;51.25;94466.25;6102376;28;104318;-56
2022/08/21 09:17:33;;;;;;;6.93;5.93;;;;;;;26.12;51.82;94461.88;6112096;28;103170;-55
2022/08/21 09:20:46;;;;;;;9.50;6.37;;;;;;;26.27;51.13;94469.94;6110079;28;103346;-56
2022/08/21 09:23:56;;;;;;;9.73;7.27;;;;;;;26.38;52.52;94456.78;6112670;28;103206;-55
2022/08/21 09:27:07;;;;;;;10.00;7.10;;;;;;;26.44;50.89;94457.28;6100995;28;103507;-55
2022/08/21 09:30:12;;;;;;;10.80;7.10;;;;;;;26.45;51.28;94454.25;6106856;28;104015;-55
2022/08/21 09:33:17;;;;;;;8.87;7.10;;;;;;;26.45;50.91;94456.94;6110279;28;103462;-56
2022/08/21 09:36:34;;;;;;;10.03;8.13;;;;;;;26.44;51.11;94454.63;6108942;28;104500;-55
2022/08/21 09:39:40;;;;;;;11.63;10.73;;;;;;;26.55;51.03;94455.66;6106825;28;103315;-55
2022/08/21 09:42:56;;;;;;;10.13;9.13;;;;;;;26.57;52.45;94456.06;6112067;28;103399;-57
2022/08/21 09:46:06;;;;;;;8.93;8.03;;;;;;;26.68;51.34;94459.00;6105429;28;103344;-61
2022/08/21 09:49:10;;;;;;;10.67;8.10;;;;;;;26.78;51.67;94453.91;6101211;28;105122;-54
2022/08/21 09:52:22;;;;;;;9.23;8.00;;;;;;;26.85;51.78;94450.56;6112695;28;104090;-54
2022/08/21 09:58:53;;;;;;;9.73;6.87;;;;;;;26.53;52.02;94449.81;6110410;28;104229;-55
2022/08/21 10:01:57;;;;;;;8.40;6.63;;;;;;;26.40;51.75;94451.06;6101606;28;104819;-55
2022/08/21 10:05:04;;;;;;;7.33;6.63;;;;;;;26.46;51.29;94442.41;6108204;28;103814;-56
2022/08/21 10:08:19;;;;;;;12.03;7.13;;;;;;;26.59;52.15;94437.72;6113386;28;104039;-56
2022/08/21 10:11:29;;;;;;;11.67;7.37;;;;;;;26.65;52.11;94439.03;6102695;28;103497;-55
2022/08/21 10:14:46;;;;;;;11.93;8.80;;;;;;;26.56;51.19;94441.88;6111221;28;103239;-55
2022/08/21 10:17:57;;;;;;;9.00;7.10;;;;;;;26.31;51.91;94424.41;6110557;28;104691;-55
2022/08/21 10:21:05;;;;;;;8.37;6.23;;;;;;;25.71;51.87;94431.72;6113435;28;104154;-56
2022/08/21 10:24:26;;;;;;;6.87;6.17;;;;;;;25.48;52.91;94439.53;6101525;28;104102;-56
2022/08/21 10:27:44;;;;;;;8.83;6.40;;;;;;;25.32;53.01;94436.00;6108669;28;103266;-56
2022/08/21 10:30:53;;;;;;;9.70;6.90;;;;;;;25.61;52.25;94429.53;6111942;28;103473;-56
2022/08/21 10:34:11;;;;;;;6.23;5.53;;;;;;;25.86;51.53;94427.50;6103421;28;104479;-56
2022/08/21 10:37:23;;;;;;;7.30;6.30;;;;;;;26.03;52.03;94431.75;6112194;28;102902;-56
2022/08/21 10:40:35;;;;;;;11.67;6.27;;;;;;;26.15;51.48;94423.63;6112797;28;104277;-56
2022/08/21 10:43:48;;;;;;;8.60;6.40;;;;;;;26.18;51.07;94418.34;6109454;28;103321;-55
2022/08/21 10:46:57;;;;;;;7.77;6.10;;;;;;;26.33;51.03;94416.00;6102179;28;104656;-56
2022/08/21 10:50:11;;;;;;;6.57;5.93;;;;;;;26.39;50.16;94417.31;6110902;28;103085;-56
2022/08/21 10:53:33;;;;;;;7.03;5.90;;;;;;;26.45;50.77;94410.56;6111665;28;103052;-55
2022/08/21 10:56:42;;;;;;;6.43;5.57;;;;;;;26.53;50.59;94402.28;6101261;28;105229;-54
2022/08/21 10:59:56;;;;;;;8.10;6.00;;;;;;;26.66;51.27;94399.53;6103931;28;103272;-54
2022/08/21 11:03:05;;;;;;;5.63;5.10;;;;;;;26.71;51.03;94386.59;6110486;28;104208;-56
2022/08/21 11:06:14;;;;;;;7.70;5.60;;;;;;;26.76;51.17;94385.56;6109992;28;104168;-55
2022/08/21 11:09:20;;;;;;;8.43;6.00;;;;;;;26.67;50.35;94391.13;6100943;28;104215;-55
2022/08/21 11:12:43;;;;;;;7.30;5.83;;;;;;;26.73;51.46;94379.00;6111855;28;104236;-56
2022/08/21 11:15:54;;;;;;;6.53;5.93;;;;;;;26.76;51.00;94370.25;6111972;28;104025;-55
2022/08/21 11:19:05;;;;;;;5.97;5.13;;;;;;;26.80;51.04;94363.03;6105095;28;103485;-56
2022/08/21 11:22:15;;;;;;;6.57;5.97;;;;;;;26.83;51.46;94365.00;6089657;28;103788;-56
2022/08/21 11:25:23;;;;;;;6.30;5.70;;;;;;;26.79;50.26;94355.34;6113180;28;103142;-57
2022/08/21 11:28:34;;;;;;;6.60;5.80;;;;;;;26.65;50.28;94361.19;6111087;28;104281;-56
2022/08/21 11:31:52;;;;;;;5.63;5.13;;;;;;;26.66;49.60;94362.72;6102326;28;103371;-55
2022/08/21 11:35:04;;;;;;;6.27;5.67;;;;;;;26.43;50.60;94365.28;6112391;28;103113;-55
2022/08/21 11:38:20;;;;;;;7.90;6.40;;;;;;;26.27;49.23;94362.63;6111362;28;103500;-56
2022/08/21 11:41:29;;;;;;;7.13;6.50;;;;;;;25.99;49.61;94365.41;6094528;28;103252;-55
2022/08/21 11:44:52;;;;;;;7.00;6.30;;;;;;;26.08;49.05;94357.22;6106287;28;103367;-58
2022/08/21 11:48:08;;;;;;;6.43;5.83;;;;;;;25.93;48.41;94364.13;6110304;28;103347;-58
2022/08/21 11:51:16;;;;;;;7.07;6.10;;;;;;;26.03;48.34;94359.38;6116428;28;104198;-57
2022/08/21 11:54:27;;;;;;;9.37;6.43;;;;;;;26.17;48.57;94355.13;6108883;28;103621;-57
2022/08/21 11:57:36;;;;;;;8.47;6.60;;;;;;;26.23;48.43;94359.09;6120431;28;103322;-57
2022/08/21 12:00:44;;;;;;;9.80;7.27;;;;;;;26.00;49.80;94352.81;6108154;28;103481;-57
2022/08/21 12:03:56;;;;;;;7.90;6.47;;;;;;;26.09;49.66;94340.00;6105715;28;103325;-55
2022/08/21 12:07:12;;;;;;;9.50;6.63;;;;;;;26.26;49.76;94344.22;6097446;28;103886;-55
2022/08/21 12:10:20;;;;;;;15.00;6.90;;;;;;;26.28;50.51;94334.69;6089879;28;104879;-52
2022/08/21 12:13:26;;;;;;;7.60;6.60;;;;;;;26.02;49.09;94333.69;6083454;28;104610;-52
2022/08/21 12:16:46;;;;;;;12.60;6.93;;;;;;;25.75;48.37;94332.66;6082915;28;104253;-53
2022/08/21 12:23:06;;;;;;;8.30;6.00;;;;;;;25.57;45.84;94349.06;6089091;23;104600;-69
2022/08/21 12:26:28;;;;;;;7.43;6.47;;;;;;;25.43;44.50;94342.56;6067333;28;104338;-68
2022/08/21 12:29:33;;;;;;;7.50;6.67;;;;;;;25.32;43.46;94344.94;6058665;28;104312;-68
2022/08/21 12:32:47;;;;;;;7.87;6.10;;;;;;;25.17;42.74;94348.34;6087202;23;104291;-68
2022/08/21 12:36:02;;;;;;;7.20;6.20;;;;;;;25.15;41.67;94353.28;6063909;28;104002;-68
2022/08/21 12:39:14;;;;;;;9.07;6.40;;;;;;;25.01;40.74;94346.41;6062511;28;104610;-67
2022/08/21 12:42:23;;;;;;;8.93;6.13;;;;;;;24.86;39.66;94341.00;6055197;28;104529;-70
2022/08/21 12:45:31;;;;;;;9.53;6.63;;;;;;;24.76;38.62;94344.97;6061040;28;103447;-67
2022/08/21 12:48:48;;;;;;;7.90;5.80;;;;;;;24.64;37.90;94334.25;6059966;28;104788;-68
2022/08/21 12:52:07;;;;;;;8.37;5.93;;;;;;;24.58;38.00;94332.94;6049852;28;104507;-66
2022/08/21 12:55:15;;;;;;;12.63;6.20;;;;;;;25.06;40.22;94338.16;6059257;28;105926;-69
2022/08/21 12:58:22;;;;;;;7.47;6.77;;;;;;;25.38;43.33;94331.00;6061761;28;104444;-68
2022/08/21 13:01:31;;;;;;;10.07;8.23;;;;;;;25.61;44.89;94325.81;6039414;28;103308;-69
2022/08/21 13:04:43;;;;;;;9.20;6.47;;;;;;;25.72;45.86;94323.41;6026457;28;104754;-69
2022/08/21 13:07:49;;;;;;;7.10;6.37;;;;;;;25.77;47.02;94322.34;6040996;28;103823;-69
2022/08/21 13:11:02;;;;;;;6.83;6.23;;;;;;;25.89;47.13;94325.72;6040362;28;104845;-69
2022/08/21 13:14:26;;;;;;;7.47;6.50;;;;;;;25.96;47.23;94325.09;6034637;28;103294;-69
2022/08/21 13:17:37;;;;;;;10.73;6.90;;;;;;;26.06;46.43;94332.66;6036034;28;105092;-70
2022/08/21 13:20:44;;;;;;;10.93;7.90;;;;;;;26.16;47.95;94331.34;6037910;28;104546;-68
2022/08/21 13:23:49;;;;;;;7.70;6.80;;;;;;;25.96;50.83;94320.53;6035108;28;103594;-67
2022/08/21 13:26:55;;;;;;;7.40;6.60;;;;;;;25.87;51.63;94321.81;6067823;23;104025;-71
2022/08/21 13:30:10;;;;;;;6.67;6.03;;;;;;;25.93;51.44;94320.44;6058050;28;105163;-69
2022/08/21 13:33:19;;;;;;;9.30;6.97;;;;;;;25.97;51.13;94321.28;6059760;28;103928;-68
2022/08/21 13:36:35;;;;;;;10.87;6.47;;;;;;;25.96;51.84;94309.03;6057372;28;103601;-69
2022/08/21 13:39:52;;;;;;;7.30;6.60;;;;;;;25.81;52.66;94288.38;6129492;23;106678;-64
2022/08/21 13:42:57;;;;;;;7.57;6.83;;;;;;;25.92;52.99;94294.75;6053449;28;104988;-66
2022/08/21 13:46:01;;;;;;;8.50;6.10;;;;;;;25.98;52.44;94296.03;6065014;28;104294;-62
2022/08/21 13:49:07;;;;;;;6.70;6.00;;;;;;;25.87;52.78;94301.16;6049809;28;104354;-67
2022/08/21 13:52:19;;;;;;;7.83;6.00;;;;;;;25.98;51.90;94312.13;6058046;28;103833;-65
2022/08/21 13:55:22;;;;;;;6.80;6.20;;;;;;;26.09;51.78;94305.13;6058276;28;104956;-67
2022/08/21 13:58:28;;;;;;;6.97;6.20;;;;;;;26.10;52.49;94306.69;6063026;28;105828;-64
2022/08/21 14:01:35;;;;;;;9.73;6.83;;;;;;;26.07;52.17;94310.06;6072289;28;103316;-69
2022/08/21 14:04:43;;;;;;;7.27;6.07;;;;;;;25.94;52.92;94301.31;6082171;28;103393;-68
2022/08/21 14:08:04;;;;;;;10.00;6.43;;;;;;;25.94;52.76;94305.91;6071415;28;104322;-68
2022/08/21 14:11:13;;;;;;;7.87;7.00;;;;;;;25.98;53.01;94304.84;6065645;28;102806;-69
2022/08/21 14:14:23;;;;;;;7.10;6.50;;;;;;;26.02;52.85;94296.91;6070666;28;104791;-68
2022/08/21 14:17:31;;;;;;;13.20;7.20;;;;;;;26.07;53.20;94291.31;6069374;28;103337;-68
2022/08/21 14:20:37;;;;;;;14.47;11.47;;;;;;;26.01;53.64;94289.22;6064760;28;103047;-65
2022/08/21 14:23:42;;;;;;;12.60;7.57;;;;;;;26.06;53.57;94281.72;6075712;28;103259;-65
2022/08/21 14:26:50;;;;;;;20.50;8.10;;;;;;;26.13;53.78;94279.16;6085334;28;103239;-67
2022/08/21 14:30:01;;;;;;;11.00;7.60;;;;;;;26.26;52.87;94287.88;6087234;28;103012;-67
2022/08/21 14:33:09;;;;;;;18.33;8.63;;;;;;;26.39;54.52;94292.00;6081220;28;104511;-66